EGGW/LTN METAR and TAF weather

Enter ICAO airport designator
Station Type Date Time Source
EGGW METAR 2019/06/18 16:50 UTC NOAA

EGGW 181650Z VRB02KT 4500 RA BKN030TCU OVC047 16/14 Q1013 RERA


Station Type Date Time Source
EGGW Decoded METAR 2019/06/18 16:50 UTC NOAA

Luton Airport , United Kingdom (EGGW) 51-52N 000-22W
Jun 18, 2019 - 12:50 PM EDT / 2019.06.18 1650 UTC
Wind: Variable at 2 MPH (2 KT):0
Visibility: 2 mile(s):0
Sky conditions: overcast
Weather: rain; Towering cumulus clouds observed
Temperature: 60 F (16 C)
Dew Point: 57 F (14 C)
Relative Humidity: 87%
Pressure (altimeter): 29.91 in. Hg (1013 hPa)
ob: EGGW 181650Z VRB02KT 4500 RA BKN030TCU OVC047 16/14 Q1013 RERA
cycle: 17

Station Type Date Time Source
EGGW TAF 2019/06/18 18:09 UTC NOAA

TAF TAF EGGW 181700Z 1818/1918 05004KT 9999 SCT030
TEMPO 1818/1916 7000 RA SHRA PROB30 1900/1904 1200 BR BKN001 PROB40
TEMPO 1904/1911 2500 +SHRA TSRA BKN003 BKN048CB
TEMPO 1908/1916 BKN010
BECMG 1912/1915 30010KT

Example: see airport list